createdAt,value
2022-11-02T00:00:46.082Z,8.95
2022-11-02T00:03:19.513Z,9.09
2022-11-02T00:05:46.948Z,8.80
2022-11-02T00:08:14.390Z,8.62
2022-11-02T00:10:41.954Z,8.64
2022-11-02T00:13:10.522Z,8.64
2022-11-02T00:15:38.157Z,8.63
2022-11-02T00:18:13.428Z,8.65
2022-11-02T00:20:43.512Z,8.47
2022-11-02T00:23:17.919Z,8.50
2022-11-02T00:25:48.938Z,8.50
2022-11-02T00:28:17.079Z,8.48
2022-11-02T00:30:57.821Z,8.50
2022-11-02T00:33:26.834Z,8.47
2022-11-02T00:35:55.355Z,8.44
2022-11-02T00:38:22.657Z,8.38
2022-11-02T00:40:51.646Z,8.30
2022-11-02T00:43:27.403Z,8.35
2022-11-02T00:45:55.061Z,8.37
2022-11-02T00:48:22.853Z,8.37
2022-11-02T00:51:14.031Z,8.45
2022-11-02T00:53:43.193Z,8.48
2022-11-02T00:56:15.151Z,8.68
2022-11-02T00:58:42.927Z,8.56
2022-11-02T01:01:14.810Z,8.61
2022-11-02T01:03:42.405Z,8.79
2022-11-02T01:06:12.874Z,8.80
2022-11-02T01:08:41.934Z,8.75
2022-11-02T01:11:18.299Z,8.72
2022-11-02T01:13:45.940Z,8.69
2022-11-02T01:16:20.714Z,8.65
2022-11-02T01:18:51.893Z,8.64
2022-11-02T01:21:20.164Z,8.85
2022-11-02T01:23:47.816Z,9.07
2022-11-02T01:26:15.378Z,8.92
2022-11-02T01:28:42.823Z,8.95
2022-11-02T01:31:11.388Z,8.98
2022-11-02T01:33:43.923Z,9.02
2022-11-02T01:36:17.090Z,9.09
2022-11-02T01:38:44.447Z,9.14
2022-11-02T01:41:12.668Z,9.27
2022-11-02T01:43:49.526Z,9.23
2022-11-02T01:46:27.144Z,9.22
2022-11-02T01:49:05.969Z,9.26
2022-11-02T01:51:51.707Z,9.20
2022-11-02T01:54:24.567Z,9.19
2022-11-02T01:56:58.913Z,9.44
2022-11-02T01:59:37.296Z,9.36
2022-11-02T02:02:13.190Z,9.24
2022-11-02T02:04:43.571Z,9.22
2022-11-02T02:07:15.050Z,8.97
2022-11-02T02:09:47.277Z,8.80
2022-11-02T02:12:20.585Z,8.65
2022-11-02T02:14:48.714Z,8.57
2022-11-02T02:17:44.195Z,8.40
2022-11-02T02:20:23.216Z,8.37
2022-11-02T02:23:25.668Z,8.46
2022-11-02T02:26:19.443Z,8.30
2022-11-02T02:29:09.576Z,8.35
2022-11-02T02:31:45.122Z,8.22
2022-11-02T02:34:27.451Z,8.43
2022-11-02T02:37:06.721Z,8.27
2022-11-02T02:40:02.238Z,8.22
2022-11-02T02:42:41.128Z,8.23
2022-11-02T02:45:35.098Z,8.25
2022-11-02T02:48:16.832Z,8.43
2022-11-02T02:50:49.724Z,8.29
2022-11-02T02:53:25.404Z,8.29
2022-11-02T02:55:56.110Z,8.36
2022-11-02T02:58:28.682Z,8.38
2022-11-02T03:00:57.274Z,8.30
2022-11-02T03:03:27.472Z,8.48
2022-11-02T03:06:20.551Z,8.67
2022-11-02T03:09:08.701Z,8.55
2022-11-02T03:11:51.277Z,8.66
2022-11-02T03:14:46.983Z,8.72
2022-11-02T03:17:25.788Z,8.68
2022-11-02T03:19:57.700Z,8.58
2022-11-02T03:22:40.754Z,8.49
2022-11-02T03:28:14.687Z,8.39
2022-11-02T03:30:53.124Z,8.51
2022-11-02T03:33:33.889Z,8.54
2022-11-02T03:36:13.043Z,8.67
2022-11-02T03:38:58.713Z,8.76
2022-11-02T03:41:27.900Z,8.77
2022-11-02T03:44:04.500Z,8.74
2022-11-02T03:46:36.483Z,8.75
2022-11-02T03:49:08.737Z,8.81
2022-11-02T03:51:42.217Z,8.68
2022-11-02T03:54:31.836Z,8.50
2022-11-02T03:59:32.728Z,8.35
2022-11-02T04:02:02.066Z,8.22
2022-11-02T04:04:30.720Z,8.18
2022-11-02T04:06:58.374Z,8.10
2022-11-02T04:09:25.993Z,8.17
2022-11-02T04:12:12.040Z,8.02
2022-11-02T04:14:40.175Z,8.05
2022-11-02T04:17:35.840Z,7.98
2022-11-02T04:20:09.482Z,7.79
2022-11-02T04:22:56.535Z,7.72
2022-11-02T04:25:24.415Z,7.56
2022-11-02T04:28:11.836Z,7.63
2022-11-02T04:30:50.110Z,7.62
2022-11-02T04:33:35.689Z,7.60
2022-11-02T04:36:16.508Z,7.68
2022-11-02T04:38:48.223Z,7.58
2022-11-02T04:41:43.386Z,7.45
2022-11-02T04:44:30.918Z,7.44
2022-11-02T04:47:21.630Z,7.42
2022-11-02T04:49:49.269Z,7.34
2022-11-02T04:52:19.529Z,7.34
2022-11-02T04:54:50.724Z,7.31
2022-11-02T04:57:19.092Z,7.34
2022-11-02T04:59:50.542Z,7.35
2022-11-02T05:02:18.194Z,7.31
2022-11-02T05:04:45.757Z,7.31
2022-11-02T05:07:14.888Z,7.22
2022-11-02T05:09:42.969Z,7.18
2022-11-02T05:12:12.718Z,7.16
2022-11-02T05:14:40.972Z,7.14
2022-11-02T05:17:09.451Z,7.16
2022-11-02T05:19:39.002Z,7.02
2022-11-02T05:22:06.642Z,6.91
2022-11-02T05:24:34.926Z,6.86
2022-11-02T05:27:02.636Z,6.85
2022-11-02T05:29:33.590Z,6.85
2022-11-02T05:32:01.053Z,6.74
2022-11-02T05:34:29.690Z,6.70
2022-11-02T05:36:57.218Z,6.74
2022-11-02T05:39:24.603Z,6.85
2022-11-02T05:41:52.090Z,6.74
2022-11-02T05:44:19.831Z,6.71
2022-11-02T05:46:47.287Z,6.65
2022-11-02T05:49:14.856Z,6.61
2022-11-02T05:51:44.064Z,6.61
2022-11-02T05:54:11.525Z,6.56
2022-11-02T05:56:39.027Z,6.51
2022-11-02T05:59:06.679Z,6.52
2022-11-02T06:01:34.528Z,6.51
2022-11-02T06:04:03.575Z,6.78
2022-11-02T06:06:34.594Z,6.73
2022-11-02T06:09:06.937Z,6.70
2022-11-02T06:11:34.861Z,6.74
2022-11-02T06:14:03.807Z,6.74
2022-11-02T06:16:31.814Z,6.63
2022-11-02T06:19:02.546Z,6.65
2022-11-02T06:21:30.135Z,6.56
2022-11-02T06:23:59.098Z,6.58
2022-11-02T06:26:26.614Z,6.53
2022-11-02T06:28:53.925Z,6.58
2022-11-02T06:31:22.603Z,6.66
2022-11-02T06:33:49.971Z,6.78
2022-11-02T06:36:17.450Z,6.76
2022-11-02T06:38:46.221Z,6.80
2022-11-02T06:41:13.761Z,6.99
2022-11-02T06:43:45.377Z,6.94
2022-11-02T06:46:12.882Z,6.94
2022-11-02T06:48:40.379Z,6.96
2022-11-02T06:51:08.314Z,7.10
2022-11-02T06:53:35.781Z,7.16
2022-11-02T06:56:03.268Z,7.12
2022-11-02T06:58:32.399Z,7.22
2022-11-02T07:01:02.555Z,7.22
2022-11-02T07:03:30.958Z,7.19
2022-11-02T07:05:59.340Z,7.23
2022-11-02T07:08:27.881Z,7.28
2022-11-02T07:11:21.120Z,7.17
2022-11-02T07:13:48.902Z,7.08
2022-11-02T07:16:16.404Z,6.87
2022-11-02T07:18:43.974Z,6.90
2022-11-02T07:21:12.057Z,6.94
2022-11-02T07:23:40.169Z,7.01
2022-11-02T07:26:07.875Z,7.10
2022-11-02T07:28:38.156Z,7.25
2022-11-02T07:31:05.928Z,7.55
2022-11-02T07:33:34.236Z,7.85
2022-11-02T07:36:04.675Z,8.12
2022-11-02T07:38:32.124Z,8.51
2022-11-02T07:41:02.357Z,8.97
2022-11-02T07:43:29.760Z,9.41
2022-11-02T07:46:06.175Z,9.99
2022-11-02T07:48:33.663Z,11.01
2022-11-02T07:51:01.214Z,11.36
2022-11-02T07:53:29.208Z,12.24
2022-11-02T07:55:56.693Z,13.31
2022-11-02T07:58:24.546Z,13.94
2022-11-02T08:00:55.840Z,14.05
2022-11-02T08:03:26.692Z,14.19
2022-11-02T08:05:54.457Z,15.42
2022-11-02T08:08:23.632Z,16.36
2022-11-02T08:10:52.794Z,16.85
2022-11-02T08:13:22.601Z,16.99
2022-11-02T08:15:52.257Z,18.07
2022-11-02T08:18:24.935Z,17.67
2022-11-02T08:20:56.371Z,17.70
2022-11-02T08:23:25.208Z,16.92
2022-11-02T08:25:54.419Z,16.11
2022-11-02T08:28:23.521Z,15.43
2022-11-02T08:30:51.374Z,15.22
2022-11-02T08:33:19.499Z,14.76
2022-11-02T08:35:48.465Z,14.52
2022-11-02T08:38:16.859Z,14.00
2022-11-02T08:40:45.062Z,13.72
2022-11-02T08:43:14.677Z,13.56
2022-11-02T08:48:32.380Z,12.82
2022-11-02T08:50:59.889Z,12.83
2022-11-02T08:53:27.500Z,12.72
2022-11-02T08:55:58.676Z,13.11
2022-11-02T08:58:26.461Z,13.71
2022-11-02T09:00:58.293Z,13.98
2022-11-02T09:03:27.283Z,14.04
2022-11-02T09:06:02.588Z,13.72
2022-11-02T09:08:31.236Z,14.35
2022-11-02T09:11:03.032Z,13.76
2022-11-02T09:13:31.042Z,14.23
2022-11-02T09:15:59.919Z,13.97
2022-11-02T09:18:30.560Z,13.95
2022-11-02T09:21:02.010Z,14.07
2022-11-02T09:23:29.479Z,13.97
2022-11-02T09:25:59.021Z,13.71
2022-11-02T09:28:26.612Z,13.51
2022-11-02T09:30:55.119Z,13.09
2022-11-02T09:33:22.817Z,12.76
2022-11-02T09:35:50.379Z,12.68
2022-11-02T09:38:18.636Z,12.94
2022-11-02T09:40:55.023Z,12.66
2022-11-02T09:43:54.536Z,12.45
2022-11-02T09:46:43.332Z,12.28
2022-11-02T09:49:15.765Z,12.18
2022-11-02T09:51:49.148Z,12.03
2022-11-02T09:54:19.482Z,11.99
2022-11-02T09:56:48.272Z,12.02
2022-11-02T09:59:18.918Z,11.94
2022-11-02T10:01:58.494Z,11.88
2022-11-02T10:05:12.618Z,11.86
2022-11-02T10:08:01.800Z,11.87
2022-11-02T10:10:52.831Z,11.93
2022-11-02T10:13:29.860Z,12.67
2022-11-02T10:16:05.927Z,13.10
2022-11-02T10:18:36.702Z,13.19
2022-11-02T10:21:30.916Z,13.16
2022-11-02T10:24:01.045Z,13.00
2022-11-02T10:26:45.223Z,12.94
2022-11-02T10:29:32.927Z,13.28
2022-11-02T10:32:02.098Z,13.38
2022-11-02T10:34:30.635Z,13.22
2022-11-02T10:37:04.053Z,13.11
2022-11-02T10:40:05.906Z,13.31
2022-11-02T10:42:55.774Z,13.26
2022-11-02T10:45:48.179Z,13.04
2022-11-02T10:49:06.703Z,13.08
2022-11-02T10:51:43.289Z,13.23
2022-11-02T10:54:19.459Z,13.23
2022-11-02T10:56:51.509Z,13.31
2022-11-02T10:59:23.640Z,13.36
2022-11-02T11:01:57.381Z,13.29
2022-11-02T11:04:27.204Z,13.39
2022-11-02T11:06:59.046Z,13.53
2022-11-02T11:10:00.338Z,13.33
2022-11-02T11:12:34.111Z,13.23
2022-11-02T11:21:08.154Z,13.35
2022-11-02T11:23:35.626Z,13.56
2022-11-02T11:26:26.434Z,14.08
2022-11-02T11:28:56.216Z,14.22
2022-11-02T11:31:24.404Z,13.95
2022-11-02T11:33:55.289Z,14.25
2022-11-02T11:36:29.138Z,14.48
2022-11-02T11:39:01.386Z,14.35
2022-11-02T11:41:31.657Z,14.10
2022-11-02T11:44:01.625Z,13.93
2022-11-02T11:46:54.160Z,14.01
2022-11-02T11:49:48.072Z,13.90
2022-11-02T11:52:25.581Z,14.10
2022-11-02T11:54:59.255Z,14.12
2022-11-02T11:57:34.212Z,14.25
2022-11-02T12:00:05.210Z,14.27
2022-11-02T12:02:40.859Z,14.58
2022-11-02T12:05:36.907Z,14.59
2022-11-02T12:08:30.299Z,14.56
2022-11-02T12:11:12.722Z,14.17
2022-11-02T12:14:27.487Z,14.28
2022-11-02T12:16:54.927Z,13.82
2022-11-02T12:19:50.605Z,13.22
2022-11-02T12:22:33.786Z,13.32
2022-11-02T12:25:12.248Z,13.50
2022-11-02T12:28:03.436Z,13.72
2022-11-02T12:30:59.889Z,13.92
2022-11-02T12:33:56.747Z,13.82
2022-11-02T12:40:37.444Z,13.89
2022-11-02T12:43:07.815Z,13.74
2022-11-02T12:45:52.445Z,13.69
2022-11-02T12:48:30.786Z,13.61
2022-11-02T12:51:09.011Z,13.46
2022-11-02T12:53:44.043Z,13.49
2022-11-02T12:56:31.156Z,13.59
2022-11-02T12:59:00.400Z,13.57
2022-11-02T13:01:42.139Z,13.60
2022-11-02T13:04:19.227Z,13.76
2022-11-02T13:06:50.176Z,13.68
2022-11-02T13:09:27.970Z,13.47
2022-11-02T13:12:07.555Z,13.26
2022-11-02T13:14:41.166Z,13.17
2022-11-02T13:18:00.773Z,12.84
2022-11-02T13:20:47.450Z,12.77
2022-11-02T13:26:12.382Z,12.73
2022-11-02T13:28:49.924Z,12.68
2022-11-02T13:31:25.662Z,12.55
2022-11-02T13:33:56.036Z,12.63
2022-11-02T13:36:25.619Z,12.91
2022-11-02T13:39:02.164Z,13.11
2022-11-02T13:41:51.378Z,13.05
2022-11-02T13:44:30.546Z,12.79
2022-11-02T13:47:17.668Z,12.64
2022-11-02T13:49:51.065Z,12.66
2022-11-02T13:52:29.222Z,12.52
2022-11-02T13:55:02.432Z,12.51
2022-11-02T13:57:35.492Z,12.77
2022-11-02T14:00:08.431Z,12.93
2022-11-02T14:02:41.494Z,13.05
2022-11-02T14:05:09.318Z,13.19
2022-11-02T14:07:40.962Z,13.30
2022-11-02T14:10:20.050Z,13.17
2022-11-02T14:12:51.039Z,13.01
2022-11-02T14:15:20.960Z,12.94
2022-11-02T14:18:13.139Z,12.85
2022-11-02T14:20:49.399Z,12.81
2022-11-02T14:23:26.062Z,12.83
2022-11-02T14:25:58.576Z,12.77
2022-11-02T14:28:37.675Z,12.83
2022-11-02T14:31:05.267Z,12.71
2022-11-02T14:33:44.880Z,12.63
2022-11-02T14:36:18.612Z,12.62
2022-11-02T14:39:20.592Z,12.58
2022-11-02T14:42:06.571Z,12.53
2022-11-02T14:44:59.382Z,12.43
2022-11-02T14:47:33.672Z,12.39
2022-11-02T14:50:10.019Z,12.29
2022-11-02T14:52:40.981Z,12.22
2022-11-02T14:55:25.870Z,12.19
2022-11-02T14:58:06.488Z,12.12
2022-11-02T15:00:49.361Z,12.05
2022-11-02T15:03:25.935Z,11.94
2022-11-02T15:06:24.085Z,11.92
2022-11-02T15:08:55.309Z,11.84
2022-11-02T15:11:46.725Z,11.77
2022-11-02T15:14:35.974Z,11.71
2022-11-02T15:17:26.212Z,11.69
2022-11-02T15:20:16.449Z,11.55
2022-11-02T15:22:43.858Z,11.43
2022-11-02T15:25:25.816Z,11.43
2022-11-02T15:27:57.177Z,11.31
2022-11-02T15:30:28.394Z,11.22
2022-11-02T15:33:04.468Z,11.16
2022-11-02T15:35:38.069Z,11.09
2022-11-02T15:38:30.442Z,11.02
2022-11-02T15:41:06.253Z,10.90
2022-11-02T15:43:57.311Z,10.89
2022-11-02T15:46:39.134Z,10.84
2022-11-02T15:49:40.484Z,10.75
2022-11-02T15:52:23.145Z,10.70
2022-11-02T15:55:12.518Z,10.57
2022-11-02T15:57:39.880Z,10.54
2022-11-02T16:00:12.641Z,10.46
2022-11-02T16:02:45.876Z,10.45
2022-11-02T16:05:21.095Z,10.36
2022-11-02T16:08:10.103Z,10.31
2022-11-02T16:10:38.135Z,10.29
2022-11-02T16:13:17.309Z,10.29
2022-11-02T16:15:46.928Z,10.18
2022-11-02T16:18:27.764Z,10.16
2022-11-02T16:21:00.773Z,10.22
2022-11-02T16:23:45.090Z,10.23
2022-11-02T16:26:22.620Z,10.20
2022-11-02T16:29:00.820Z,10.23
2022-11-02T16:31:34.337Z,10.25
2022-11-02T16:34:17.380Z,10.31
2022-11-02T16:36:45.712Z,10.24
2022-11-02T16:39:28.984Z,10.28
2022-11-02T16:42:00.082Z,10.17
2022-11-02T16:44:33.315Z,10.13
2022-11-02T16:47:17.162Z,10.06
2022-11-02T16:49:53.639Z,10.09
2022-11-02T16:52:37.519Z,9.99
2022-11-02T16:55:40.587Z,9.89
2022-11-02T16:58:14.897Z,9.88
2022-11-02T17:01:04.002Z,9.79
2022-11-02T17:03:35.056Z,9.71
2022-11-02T17:06:07.605Z,9.65
2022-11-02T17:08:38.842Z,9.71
2022-11-02T17:11:11.918Z,9.69
2022-11-02T17:13:46.838Z,9.71
2022-11-02T17:16:14.454Z,9.74
2022-11-02T17:18:41.916Z,9.70
2022-11-02T17:21:12.194Z,9.62
2022-11-02T17:23:45.598Z,9.57
2022-11-02T17:26:22.015Z,9.51
2022-11-02T17:28:56.864Z,9.39
2022-11-02T17:31:26.196Z,9.25
2022-11-02T17:33:54.394Z,9.17
2022-11-02T17:36:22.581Z,9.11
2022-11-02T17:38:49.994Z,9.05
2022-11-02T17:41:37.502Z,9.05
2022-11-02T17:44:13.894Z,9.03
2022-11-02T17:46:44.737Z,9.21
2022-11-02T17:49:13.597Z,9.27
2022-11-02T17:51:43.091Z,9.30
2022-11-02T17:54:14.254Z,9.08
2022-11-02T17:56:41.982Z,8.89
2022-11-02T17:59:09.878Z,8.74
2022-11-02T18:01:37.268Z,8.60
2022-11-02T18:04:04.813Z,8.51
2022-11-02T18:06:32.190Z,8.48
2022-11-02T18:09:11.749Z,8.45
2022-11-02T18:11:39.260Z,8.47
2022-11-02T18:14:06.869Z,8.37
2022-11-02T18:16:34.231Z,8.33
2022-11-02T18:19:01.593Z,8.40
2022-11-02T18:21:29.419Z,8.33
2022-11-02T18:23:56.747Z,8.39
2022-11-02T18:26:25.338Z,8.30
2022-11-02T18:28:53.788Z,8.25
2022-11-02T18:31:21.273Z,8.18
2022-11-02T18:33:48.769Z,8.19
2022-11-02T18:36:16.344Z,8.15
2022-11-02T18:38:44.005Z,8.11
2022-11-02T18:41:30.308Z,8.04
2022-11-02T18:44:09.038Z,8.05
2022-11-02T18:46:44.647Z,8.13
2022-11-02T18:49:12.025Z,8.06
2022-11-02T18:51:43.214Z,7.99
2022-11-02T18:54:11.096Z,7.94
2022-11-02T18:56:39.465Z,7.82
2022-11-02T18:59:07.052Z,7.79
2022-11-02T19:01:34.765Z,7.78
2022-11-02T19:04:03.386Z,7.75
2022-11-02T19:06:52.823Z,7.84
2022-11-02T19:09:23.134Z,7.91
2022-11-02T19:11:53.658Z,7.84
2022-11-02T19:14:22.706Z,7.84
2022-11-02T19:16:50.326Z,7.82
2022-11-02T19:19:22.236Z,7.72
2022-11-02T19:21:49.604Z,7.64
2022-11-02T19:24:17.520Z,7.67
2022-11-02T19:26:48.515Z,7.60
2022-11-02T19:29:16.856Z,7.55
2022-11-02T19:31:44.650Z,7.64
2022-11-02T19:34:12.128Z,7.60
2022-11-02T19:36:40.014Z,7.61
2022-11-02T19:39:09.547Z,7.52
2022-11-02T19:41:45.547Z,7.44
2022-11-02T19:44:13.071Z,7.47
2022-11-02T19:46:40.477Z,7.46
2022-11-02T19:49:10.584Z,7.43
2022-11-02T19:51:38.168Z,7.41
2022-11-02T19:54:05.776Z,7.44
2022-11-02T19:56:35.714Z,7.55
2022-11-02T19:59:04.614Z,7.49
2022-11-02T20:01:37.129Z,7.55
2022-11-02T20:04:06.233Z,7.74
2022-11-02T20:06:42.487Z,7.67
2022-11-02T20:09:15.788Z,7.74
2022-11-02T20:11:45.331Z,7.81
2022-11-02T20:14:15.525Z,7.65
2022-11-02T20:16:42.899Z,7.51
2022-11-02T20:19:10.940Z,7.69
2022-11-02T20:21:43.069Z,7.68
2022-11-02T20:24:11.864Z,7.98
2022-11-02T20:26:45.706Z,8.05
2022-11-02T20:29:15.482Z,8.05
2022-11-02T20:31:45.694Z,8.09
2022-11-02T20:34:13.736Z,8.06
2022-11-02T20:36:47.328Z,7.95
2022-11-02T20:39:14.973Z,8.01
2022-11-02T20:41:42.318Z,7.90
2022-11-02T20:44:09.872Z,7.89
2022-11-02T20:46:41.601Z,7.99
2022-11-02T20:51:59.090Z,7.95
2022-11-02T20:54:29.782Z,7.89
2022-11-02T20:56:57.844Z,8.01
2022-11-02T20:59:25.808Z,7.92
2022-11-02T21:01:53.413Z,7.87
2022-11-02T21:04:21.843Z,7.95
2022-11-02T21:06:55.017Z,8.05
2022-11-02T21:09:22.391Z,8.09
2022-11-02T21:12:08.272Z,8.05
2022-11-02T21:14:38.584Z,8.03
2022-11-02T21:17:06.898Z,8.02
2022-11-02T21:19:34.196Z,7.90
2022-11-02T21:22:02.014Z,7.89
2022-11-02T21:24:29.718Z,8.08
2022-11-02T21:26:57.027Z,8.07
2022-11-02T21:29:24.479Z,7.89
2022-11-02T21:31:51.750Z,7.94
2022-11-02T21:34:19.136Z,8.20
2022-11-02T21:36:48.553Z,8.24
2022-11-02T21:39:16.005Z,8.27
2022-11-02T21:41:43.426Z,8.17
2022-11-02T21:44:12.131Z,8.12
2022-11-02T21:46:39.613Z,8.19
2022-11-02T21:49:07.196Z,8.01
2022-11-02T21:51:36.158Z,7.86
2022-11-02T21:54:03.630Z,7.97
2022-11-02T21:56:32.145Z,7.81
2022-11-02T21:58:59.707Z,7.90
2022-11-02T22:01:45.321Z,7.71
2022-11-02T22:04:14.443Z,7.76
2022-11-02T22:06:42.397Z,7.76
2022-11-02T22:09:11.028Z,7.63
2022-11-02T22:11:38.761Z,7.51
2022-11-02T22:14:06.649Z,7.49
2022-11-02T22:16:35.232Z,7.61
2022-11-02T22:19:06.449Z,7.52
2022-11-02T22:21:37.032Z,7.56
2022-11-02T22:24:05.952Z,7.55
2022-11-02T22:26:35.266Z,7.54
2022-11-02T22:29:04.176Z,7.51
2022-11-02T22:31:34.153Z,7.38
2022-11-02T22:34:04.962Z,7.44
2022-11-02T22:36:35.190Z,7.33
2022-11-02T22:39:05.050Z,7.28
2022-11-02T22:41:34.947Z,7.15
2022-11-02T22:44:06.729Z,7.03
2022-11-02T22:46:37.849Z,6.99
2022-11-02T22:49:06.639Z,6.92
2022-11-02T22:51:36.972Z,6.93
2022-11-02T22:54:06.748Z,6.88
2022-11-02T22:56:35.127Z,6.82
2022-11-02T22:59:03.409Z,6.87
2022-11-02T23:01:32.401Z,6.82
2022-11-02T23:04:01.307Z,6.68
2022-11-02T23:06:29.905Z,6.53
2022-11-02T23:08:59.172Z,6.52
2022-11-02T23:11:32.829Z,6.58
2022-11-02T23:14:05.101Z,6.68
2022-11-02T23:16:36.955Z,6.70
2022-11-02T23:19:29.356Z,6.67
2022-11-02T23:22:22.790Z,6.67
2022-11-02T23:25:13.717Z,6.75
2022-11-02T23:28:03.739Z,6.74
2022-11-02T23:30:57.254Z,6.60
2022-11-02T23:33:30.019Z,6.50
2022-11-02T23:36:12.828Z,6.41
2022-11-02T23:39:01.164Z,6.34
2022-11-02T23:41:30.400Z,6.34
2022-11-02T23:44:14.689Z,6.33
2022-11-02T23:46:43.953Z,6.32
2022-11-02T23:49:12.666Z,6.27
2022-11-02T23:51:58.794Z,6.24
2022-11-02T23:54:44.941Z,6.03
2022-11-02T23:57:18.788Z,6.00
2022-11-02T23:59:46.204Z,5.97
